sensor_id;sensor_type;location;lat;lon;timestamp;P1;durP1;ratioP1;P2;durP2;ratioP2
23136;SDS011;11737;50.558;7.258;2022-07-01T00:00:24;3.63;;;3.23;;
23136;SDS011;11737;50.558;7.258;2022-07-01T00:02:52;6.87;;;3.43;;
23136;SDS011;11737;50.558;7.258;2022-07-01T00:05:19;9.07;;;3.50;;
23136;SDS011;11737;50.558;7.258;2022-07-01T00:07:47;4.17;;;3.80;;
23136;SDS011;11737;50.558;7.258;2022-07-01T00:10:15;4.90;;;3.83;;
23136;SDS011;11737;50.558;7.258;2022-07-01T00:12:43;5.80;;;3.77;;
23136;SDS011;11737;50.558;7.258;2022-07-01T00:15:12;8.03;;;3.63;;
23136;SDS011;11737;50.558;7.258;2022-07-01T00:17:40;8.20;;;3.97;;
23136;SDS011;11737;50.558;7.258;2022-07-01T00:20:10;6.03;;;4.20;;
23136;SDS011;11737;50.558;7.258;2022-07-01T00:22:37;5.23;;;4.03;;
23136;SDS011;11737;50.558;7.258;2022-07-01T00:25:05;5.70;;;5.20;;
23136;SDS011;11737;50.558;7.258;2022-07-01T00:27:37;4.43;;;4.03;;
23136;SDS011;11737;50.558;7.258;2022-07-01T00:30:06;12.60;;;6.67;;
23136;SDS011;11737;50.558;7.258;2022-07-01T00:32:35;7.50;;;5.90;;
23136;SDS011;11737;50.558;7.258;2022-07-01T00:35:03;9.23;;;5.57;;
23136;SDS011;11737;50.558;7.258;2022-07-01T00:37:31;8.67;;;5.03;;
23136;SDS011;11737;50.558;7.258;2022-07-01T00:39:59;8.30;;;5.50;;
23136;SDS011;11737;50.558;7.258;2022-07-01T00:42:26;8.80;;;4.77;;
23136;SDS011;11737;50.558;7.258;2022-07-01T00:44:54;8.03;;;5.87;;
23136;SDS011;11737;50.558;7.258;2022-07-01T00:47:21;9.50;;;5.17;;
23136;SDS011;11737;50.558;7.258;2022-07-01T00:49:51;11.50;;;5.20;;
23136;SDS011;11737;50.558;7.258;2022-07-01T00:52:18;7.50;;;5.93;;
23136;SDS011;11737;50.558;7.258;2022-07-01T00:54:46;14.93;;;7.27;;
23136;SDS011;11737;50.558;7.258;2022-07-01T00:57:14;5.47;;;4.17;;
23136;SDS011;11737;50.558;7.258;2022-07-01T00:59:42;12.13;;;6.60;;
23136;SDS011;11737;50.558;7.258;2022-07-01T01:02:09;8.17;;;5.43;;
23136;SDS011;11737;50.558;7.258;2022-07-01T01:04:37;9.47;;;5.47;;
23136;SDS011;11737;50.558;7.258;2022-07-01T01:07:05;8.47;;;4.27;;
23136;SDS011;11737;50.558;7.258;2022-07-01T01:09:32;8.40;;;5.43;;
23136;SDS011;11737;50.558;7.258;2022-07-01T01:12:00;4.57;;;4.10;;
23136;SDS011;11737;50.558;7.258;2022-07-01T01:14:28;6.53;;;5.50;;
23136;SDS011;11737;50.558;7.258;2022-07-01T01:16:56;9.37;;;7.07;;
23136;SDS011;11737;50.558;7.258;2022-07-01T01:19:23;10.50;;;7.47;;
23136;SDS011;11737;50.558;7.258;2022-07-01T01:21:52;7.93;;;5.97;;
23136;SDS011;11737;50.558;7.258;2022-07-01T01:24:21;7.73;;;6.63;;
23136;SDS011;11737;50.558;7.258;2022-07-01T01:26:49;11.80;;;7.00;;
23136;SDS011;11737;50.558;7.258;2022-07-01T01:29:17;9.67;;;5.13;;
23136;SDS011;11737;50.558;7.258;2022-07-01T01:31:46;8.13;;;5.40;;
23136;SDS011;11737;50.558;7.258;2022-07-01T01:34:13;16.17;;;6.03;;
23136;SDS011;11737;50.558;7.258;2022-07-01T01:36:41;10.00;;;7.03;;
23136;SDS011;11737;50.558;7.258;2022-07-01T01:39:09;10.63;;;5.67;;
23136;SDS011;11737;50.558;7.258;2022-07-01T01:41:38;6.50;;;5.87;;
23136;SDS011;11737;50.558;7.258;2022-07-01T01:44:06;10.80;;;8.17;;
23136;SDS011;11737;50.558;7.258;2022-07-01T01:46:34;14.27;;;8.83;;
23136;SDS011;11737;50.558;7.258;2022-07-01T01:49:02;8.77;;;7.43;;
23136;SDS011;11737;50.558;7.258;2022-07-01T01:51:31;11.70;;;7.33;;
23136;SDS011;11737;50.558;7.258;2022-07-01T01:53:59;9.63;;;8.20;;
23136;SDS011;11737;50.558;7.258;2022-07-01T01:56:27;14.30;;;7.00;;
23136;SDS011;11737;50.558;7.258;2022-07-01T01:58:56;11.57;;;7.67;;
23136;SDS011;11737;50.558;7.258;2022-07-01T02:01:24;13.27;;;7.20;;
23136;SDS011;11737;50.558;7.258;2022-07-01T02:03:52;13.60;;;8.33;;
23136;SDS011;11737;50.558;7.258;2022-07-01T02:06:20;11.70;;;8.20;;
23136;SDS011;11737;50.558;7.258;2022-07-01T02:08:49;13.03;;;8.10;;
23136;SDS011;11737;50.558;7.258;2022-07-01T02:11:16;12.90;;;6.73;;
23136;SDS011;11737;50.558;7.258;2022-07-01T02:13:44;11.60;;;6.57;;
23136;SDS011;11737;50.558;7.258;2022-07-01T02:16:11;10.03;;;6.30;;
23136;SDS011;11737;50.558;7.258;2022-07-01T02:18:39;4.90;;;4.37;;
23136;SDS011;11737;50.558;7.258;2022-07-01T02:21:06;9.53;;;5.20;;
23136;SDS011;11737;50.558;7.258;2022-07-01T02:23:34;7.50;;;4.73;;
23136;SDS011;11737;50.558;7.258;2022-07-01T02:26:01;10.33;;;4.80;;
23136;SDS011;11737;50.558;7.258;2022-07-01T02:28:29;11.67;;;5.27;;
23136;SDS011;11737;50.558;7.258;2022-07-01T02:30:56;8.50;;;5.47;;
23136;SDS011;11737;50.558;7.258;2022-07-01T02:33:24;11.07;;;5.87;;
23136;SDS011;11737;50.558;7.258;2022-07-01T02:35:51;7.50;;;4.27;;
23136;SDS011;11737;50.558;7.258;2022-07-01T02:38:19;10.53;;;5.00;;
23136;SDS011;11737;50.558;7.258;2022-07-01T02:40:46;8.77;;;5.47;;
23136;SDS011;11737;50.558;7.258;2022-07-01T02:43:14;8.10;;;5.50;;
23136;SDS011;11737;50.558;7.258;2022-07-01T02:45:42;7.63;;;5.50;;
23136;SDS011;11737;50.558;7.258;2022-07-01T02:48:09;11.17;;;5.80;;
23136;SDS011;11737;50.558;7.258;2022-07-01T02:50:37;6.50;;;4.70;;
23136;SDS011;11737;50.558;7.258;2022-07-01T02:53:04;6.93;;;3.60;;
23136;SDS011;11737;50.558;7.258;2022-07-01T02:55:32;8.17;;;4.37;;
23136;SDS011;11737;50.558;7.258;2022-07-01T02:57:59;10.93;;;4.63;;
23136;SDS011;11737;50.558;7.258;2022-07-01T03:00:28;6.93;;;5.30;;
23136;SDS011;11737;50.558;7.258;2022-07-01T03:02:56;10.63;;;4.30;;
23136;SDS011;11737;50.558;7.258;2022-07-01T03:05:24;9.53;;;4.83;;
23136;SDS011;11737;50.558;7.258;2022-07-01T03:07:51;9.30;;;5.00;;
23136;SDS011;11737;50.558;7.258;2022-07-01T03:10:19;6.27;;;4.87;;
23136;SDS011;11737;50.558;7.258;2022-07-01T03:12:46;13.53;;;5.90;;
23136;SDS011;11737;50.558;7.258;2022-07-01T03:15:14;12.60;;;5.37;;
23136;SDS011;11737;50.558;7.258;2022-07-01T03:17:44;5.67;;;4.53;;
23136;SDS011;11737;50.558;7.258;2022-07-01T03:20:14;7.60;;;5.37;;
23136;SDS011;11737;50.558;7.258;2022-07-01T03:22:43;7.00;;;5.47;;
23136;SDS011;11737;50.558;7.258;2022-07-01T03:25:13;9.93;;;5.40;;
23136;SDS011;11737;50.558;7.258;2022-07-01T03:27:41;19.57;;;5.97;;
23136;SDS011;11737;50.558;7.258;2022-07-01T03:30:11;13.60;;;5.90;;
23136;SDS011;11737;50.558;7.258;2022-07-01T03:32:40;16.00;;;6.20;;
23136;SDS011;11737;50.558;7.258;2022-07-01T03:35:08;8.70;;;5.50;;
23136;SDS011;11737;50.558;7.258;2022-07-01T03:37:55;15.80;;;5.80;;
23136;SDS011;11737;50.558;7.258;2022-07-01T03:40:23;16.67;;;5.10;;
23136;SDS011;11737;50.558;7.258;2022-07-01T03:42:51;8.93;;;3.87;;
23136;SDS011;11737;50.558;7.258;2022-07-01T03:45:18;7.07;;;4.00;;
23136;SDS011;11737;50.558;7.258;2022-07-01T03:47:46;10.07;;;4.47;;
23136;SDS011;11737;50.558;7.258;2022-07-01T03:50:20;10.87;;;5.00;;
23136;SDS011;11737;50.558;7.258;2022-07-01T03:52:48;11.03;;;4.47;;
23136;SDS011;11737;50.558;7.258;2022-07-01T03:55:18;9.30;;;4.17;;
23136;SDS011;11737;50.558;7.258;2022-07-01T03:57:45;17.37;;;4.63;;
23136;SDS011;11737;50.558;7.258;2022-07-01T04:00:13;9.63;;;4.47;;
23136;SDS011;11737;50.558;7.258;2022-07-01T04:02:40;11.33;;;4.50;;
23136;SDS011;11737;50.558;7.258;2022-07-01T04:05:08;14.97;;;4.57;;
23136;SDS011;11737;50.558;7.258;2022-07-01T04:07:35;13.57;;;4.53;;
23136;SDS011;11737;50.558;7.258;2022-07-01T04:10:03;4.80;;;3.63;;
23136;SDS011;11737;50.558;7.258;2022-07-01T04:12:31;13.87;;;4.40;;
23136;SDS011;11737;50.558;7.258;2022-07-01T04:14:58;14.50;;;3.80;;
23136;SDS011;11737;50.558;7.258;2022-07-01T04:17:26;7.63;;;3.87;;
23136;SDS011;11737;50.558;7.258;2022-07-01T04:19:53;6.20;;;3.53;;
23136;SDS011;11737;50.558;7.258;2022-07-01T04:22:21;10.47;;;2.90;;
23136;SDS011;11737;50.558;7.258;2022-07-01T04:24:59;6.63;;;3.40;;
23136;SDS011;11737;50.558;7.258;2022-07-01T04:27:29;7.53;;;3.20;;
23136;SDS011;11737;50.558;7.258;2022-07-01T04:29:57;10.77;;;3.00;;
23136;SDS011;11737;50.558;7.258;2022-07-01T04:32:25;4.33;;;2.63;;
23136;SDS011;11737;50.558;7.258;2022-07-01T04:34:53;7.43;;;2.77;;
23136;SDS011;11737;50.558;7.258;2022-07-01T04:37:20;8.67;;;3.40;;
23136;SDS011;11737;50.558;7.258;2022-07-01T04:39:48;6.03;;;2.80;;
23136;SDS011;11737;50.558;7.258;2022-07-01T04:42:15;10.77;;;2.73;;
23136;SDS011;11737;50.558;7.258;2022-07-01T04:44:44;6.30;;;2.40;;
23136;SDS011;11737;50.558;7.258;2022-07-01T04:47:12;5.30;;;2.30;;
23136;SDS011;11737;50.558;7.258;2022-07-01T04:49:39;10.77;;;2.90;;
23136;SDS011;11737;50.558;7.258;2022-07-01T04:52:07;5.97;;;2.60;;
23136;SDS011;11737;50.558;7.258;2022-07-01T04:54:34;7.73;;;2.27;;
23136;SDS011;11737;50.558;7.258;2022-07-01T04:57:02;5.63;;;2.90;;
23136;SDS011;11737;50.558;7.258;2022-07-01T04:59:30;9.13;;;2.53;;
23136;SDS011;11737;50.558;7.258;2022-07-01T05:01:57;22.93;;;4.20;;
23136;SDS011;11737;50.558;7.258;2022-07-01T05:04:25;5.67;;;2.10;;
23136;SDS011;11737;50.558;7.258;2022-07-01T05:06:53;12.17;;;2.40;;
23136;SDS011;11737;50.558;7.258;2022-07-01T05:09:21;8.93;;;2.53;;
23136;SDS011;11737;50.558;7.258;2022-07-01T05:11:49;8.70;;;2.77;;
23136;SDS011;11737;50.558;7.258;2022-07-01T05:14:16;9.13;;;2.47;;
23136;SDS011;11737;50.558;7.258;2022-07-01T05:16:44;5.70;;;2.63;;
23136;SDS011;11737;50.558;7.258;2022-07-01T05:19:12;6.77;;;2.33;;
23136;SDS011;11737;50.558;7.258;2022-07-01T05:21:57;7.90;;;2.50;;
23136;SDS011;11737;50.558;7.258;2022-07-01T05:24:29;6.57;;;2.47;;
23136;SDS011;11737;50.558;7.258;2022-07-01T05:26:57;3.80;;;2.13;;
23136;SDS011;11737;50.558;7.258;2022-07-01T05:29:26;6.00;;;1.67;;
23136;SDS011;11737;50.558;7.258;2022-07-01T05:31:53;7.90;;;2.03;;
23136;SDS011;11737;50.558;7.258;2022-07-01T05:34:22;5.23;;;2.37;;
23136;SDS011;11737;50.558;7.258;2022-07-01T05:36:50;5.17;;;1.53;;
23136;SDS011;11737;50.558;7.258;2022-07-01T05:39:17;4.07;;;1.50;;
23136;SDS011;11737;50.558;7.258;2022-07-01T05:41:45;6.17;;;2.00;;
23136;SDS011;11737;50.558;7.258;2022-07-01T05:44:12;2.73;;;1.80;;
23136;SDS011;11737;50.558;7.258;2022-07-01T05:46:40;5.67;;;1.73;;
23136;SDS011;11737;50.558;7.258;2022-07-01T05:49:07;5.83;;;1.80;;
23136;SDS011;11737;50.558;7.258;2022-07-01T05:51:35;10.77;;;2.40;;
23136;SDS011;11737;50.558;7.258;2022-07-01T05:54:02;7.97;;;1.95;;
23136;SDS011;11737;50.558;7.258;2022-07-01T05:56:30;5.03;;;1.67;;
23136;SDS011;11737;50.558;7.258;2022-07-01T05:58:58;4.55;;;1.60;;
23136;SDS011;11737;50.558;7.258;2022-07-01T06:01:25;7.10;;;1.77;;
23136;SDS011;11737;50.558;7.258;2022-07-01T06:03:53;9.60;;;2.25;;
23136;SDS011;11737;50.558;7.258;2022-07-01T06:06:20;9.00;;;2.20;;
23136;SDS011;11737;50.558;7.258;2022-07-01T06:08:48;7.30;;;2.37;;
23136;SDS011;11737;50.558;7.258;2022-07-01T06:11:15;3.90;;;1.62;;
23136;SDS011;11737;50.558;7.258;2022-07-01T06:13:43;6.42;;;2.72;;
23136;SDS011;11737;50.558;7.258;2022-07-01T06:16:10;6.85;;;2.10;;
23136;SDS011;11737;50.558;7.258;2022-07-01T06:18:38;6.87;;;2.08;;
23136;SDS011;11737;50.558;7.258;2022-07-01T06:21:05;8.87;;;1.80;;
23136;SDS011;11737;50.558;7.258;2022-07-01T06:23:33;6.20;;;1.90;;
23136;SDS011;11737;50.558;7.258;2022-07-01T06:26:00;8.38;;;2.08;;
23136;SDS011;11737;50.558;7.258;2022-07-01T06:28:28;5.58;;;2.10;;
23136;SDS011;11737;50.558;7.258;2022-07-01T06:30:57;6.80;;;1.98;;
23136;SDS011;11737;50.558;7.258;2022-07-01T06:33:24;5.50;;;1.75;;
23136;SDS011;11737;50.558;7.258;2022-07-01T06:35:54;9.73;;;1.75;;
23136;SDS011;11737;50.558;7.258;2022-07-01T06:38:21;3.65;;;1.50;;
23136;SDS011;11737;50.558;7.258;2022-07-01T06:40:49;7.50;;;1.80;;
23136;SDS011;11737;50.558;7.258;2022-07-01T06:43:35;6.95;;;1.65;;
23136;SDS011;11737;50.558;7.258;2022-07-01T06:46:04;8.55;;;2.12;;
23136;SDS011;11737;50.558;7.258;2022-07-01T06:48:31;62.70;;;6.60;;
23136;SDS011;11737;50.558;7.258;2022-07-01T06:50:59;4.72;;;1.95;;
23136;SDS011;11737;50.558;7.258;2022-07-01T06:53:26;7.78;;;2.10;;
23136;SDS011;11737;50.558;7.258;2022-07-01T06:55:54;7.08;;;1.70;;
23136;SDS011;11737;50.558;7.258;2022-07-01T06:58:22;3.42;;;2.02;;
23136;SDS011;11737;50.558;7.258;2022-07-01T07:00:50;6.75;;;1.72;;
23136;SDS011;11737;50.558;7.258;2022-07-01T07:03:18;5.67;;;1.80;;
23136;SDS011;11737;50.558;7.258;2022-07-01T07:05:46;3.25;;;1.60;;
23136;SDS011;11737;50.558;7.258;2022-07-01T07:08:14;10.63;;;2.10;;
23136;SDS011;11737;50.558;7.258;2022-07-01T07:10:42;2.98;;;1.50;;
23136;SDS011;11737;50.558;7.258;2022-07-01T07:13:09;6.08;;;2.27;;
23136;SDS011;11737;50.558;7.258;2022-07-01T07:15:37;6.20;;;1.98;;
23136;SDS011;11737;50.558;7.258;2022-07-01T07:18:07;8.68;;;2.00;;
23136;SDS011;11737;50.558;7.258;2022-07-01T07:20:34;7.90;;;1.62;;
23136;SDS011;11737;50.558;7.258;2022-07-01T07:23:02;3.55;;;1.50;;
23136;SDS011;11737;50.558;7.258;2022-07-01T07:25:30;4.55;;;1.40;;
23136;SDS011;11737;50.558;7.258;2022-07-01T07:27:58;9.75;;;1.90;;
23136;SDS011;11737;50.558;7.258;2022-07-01T07:30:25;5.20;;;1.80;;
23136;SDS011;11737;50.558;7.258;2022-07-01T07:32:53;4.65;;;1.87;;
23136;SDS011;11737;50.558;7.258;2022-07-01T07:35:20;3.72;;;1.60;;
23136;SDS011;11737;50.558;7.258;2022-07-01T07:37:48;4.00;;;1.62;;
23136;SDS011;11737;50.558;7.258;2022-07-01T07:40:16;3.77;;;1.60;;
23136;SDS011;11737;50.558;7.258;2022-07-01T07:42:49;6.22;;;1.77;;
23136;SDS011;11737;50.558;7.258;2022-07-01T07:45:16;3.10;;;1.45;;
23136;SDS011;11737;50.558;7.258;2022-07-01T07:47:44;3.33;;;1.65;;
23136;SDS011;11737;50.558;7.258;2022-07-01T07:50:14;3.83;;;1.70;;
23136;SDS011;11737;50.558;7.258;2022-07-01T07:52:43;3.62;;;1.57;;
23136;SDS011;11737;50.558;7.258;2022-07-01T07:55:10;6.87;;;1.32;;
23136;SDS011;11737;50.558;7.258;2022-07-01T07:57:38;4.28;;;1.60;;
23136;SDS011;11737;50.558;7.258;2022-07-01T08:00:08;5.67;;;1.70;;
23136;SDS011;11737;50.558;7.258;2022-07-01T08:02:37;8.78;;;2.33;;
23136;SDS011;11737;50.558;7.258;2022-07-01T08:05:06;4.75;;;1.75;;
23136;SDS011;11737;50.558;7.258;2022-07-01T08:07:38;3.12;;;1.57;;
23136;SDS011;11737;50.558;7.258;2022-07-01T08:10:08;3.85;;;1.60;;
23136;SDS011;11737;50.558;7.258;2022-07-01T08:12:38;9.33;;;1.65;;
23136;SDS011;11737;50.558;7.258;2022-07-01T08:15:06;9.43;;;2.20;;
23136;SDS011;11737;50.558;7.258;2022-07-01T08:17:34;5.53;;;1.70;;
23136;SDS011;11737;50.558;7.258;2022-07-01T08:20:01;6.37;;;1.87;;
23136;SDS011;11737;50.558;7.258;2022-07-01T08:22:29;6.22;;;1.77;;
23136;SDS011;11737;50.558;7.258;2022-07-01T08:24:57;4.47;;;1.60;;
23136;SDS011;11737;50.558;7.258;2022-07-01T08:27:24;10.43;;;2.08;;
23136;SDS011;11737;50.558;7.258;2022-07-01T08:29:52;4.22;;;1.90;;
23136;SDS011;11737;50.558;7.258;2022-07-01T08:32:19;7.12;;;2.25;;
23136;SDS011;11737;50.558;7.258;2022-07-01T08:34:48;5.00;;;1.90;;
23136;SDS011;11737;50.558;7.258;2022-07-01T08:37:15;3.65;;;1.60;;
23136;SDS011;11737;50.558;7.258;2022-07-01T08:39:43;3.83;;;1.50;;
23136;SDS011;11737;50.558;7.258;2022-07-01T08:42:10;4.17;;;1.40;;
23136;SDS011;11737;50.558;7.258;2022-07-01T08:44:38;2.60;;;1.25;;
23136;SDS011;11737;50.558;7.258;2022-07-01T08:47:05;3.05;;;1.35;;
23136;SDS011;11737;50.558;7.258;2022-07-01T08:49:36;4.80;;;1.65;;
23136;SDS011;11737;50.558;7.258;2022-07-01T08:52:04;5.30;;;1.57;;
23136;SDS011;11737;50.558;7.258;2022-07-01T08:54:33;5.75;;;1.80;;
23136;SDS011;11737;50.558;7.258;2022-07-01T08:57:03;3.70;;;1.70;;
23136;SDS011;11737;50.558;7.258;2022-07-01T08:59:31;4.00;;;1.50;;
23136;SDS011;11737;50.558;7.258;2022-07-01T09:02:00;6.87;;;1.47;;
23136;SDS011;11737;50.558;7.258;2022-07-01T09:04:30;3.30;;;1.35;;
23136;SDS011;11737;50.558;7.258;2022-07-01T09:07:04;7.42;;;1.85;;
23136;SDS011;11737;50.558;7.258;2022-07-01T09:09:36;5.85;;;1.85;;
23136;SDS011;11737;50.558;7.258;2022-07-01T09:12:07;5.30;;;1.98;;
23136;SDS011;11737;50.558;7.258;2022-07-01T09:14:35;2.58;;;1.45;;
23136;SDS011;11737;50.558;7.258;2022-07-01T09:17:03;2.77;;;1.40;;
23136;SDS011;11737;50.558;7.258;2022-07-01T09:19:33;4.65;;;1.70;;
23136;SDS011;11737;50.558;7.258;2022-07-01T09:22:03;2.42;;;1.10;;
23136;SDS011;11737;50.558;7.258;2022-07-01T09:24:33;3.12;;;1.15;;
23136;SDS011;11737;50.558;7.258;2022-07-01T09:27:06;6.35;;;1.52;;
23136;SDS011;11737;50.558;7.258;2022-07-01T09:29:41;4.08;;;1.20;;
23136;SDS011;11737;50.558;7.258;2022-07-01T09:32:08;3.70;;;1.25;;
23136;SDS011;11737;50.558;7.258;2022-07-01T09:34:41;4.22;;;1.40;;
23136;SDS011;11737;50.558;7.258;2022-07-01T09:37:19;2.77;;;1.20;;
23136;SDS011;11737;50.558;7.258;2022-07-01T09:39:50;5.37;;;1.27;;
23136;SDS011;11737;50.558;7.258;2022-07-01T09:42:22;3.65;;;1.25;;
23136;SDS011;11737;50.558;7.258;2022-07-01T09:45:00;4.05;;;1.20;;
23136;SDS011;11737;50.558;7.258;2022-07-01T09:47:32;2.10;;;1.32;;
23136;SDS011;11737;50.558;7.258;2022-07-01T09:50:02;3.33;;;1.30;;
23136;SDS011;11737;50.558;7.258;2022-07-01T09:52:30;2.42;;;1.20;;
23136;SDS011;11737;50.558;7.258;2022-07-01T09:54:59;4.00;;;1.35;;
23136;SDS011;11737;50.558;7.258;2022-07-01T09:57:26;5.95;;;1.32;;
23136;SDS011;11737;50.558;7.258;2022-07-01T09:59:54;4.62;;;1.30;;
23136;SDS011;11737;50.558;7.258;2022-07-01T10:02:22;3.87;;;1.12;;
23136;SDS011;11737;50.558;7.258;2022-07-01T10:05:00;2.08;;;1.30;;
23136;SDS011;11737;50.558;7.258;2022-07-01T10:10:33;8.23;;;1.52;;
23136;SDS011;11737;50.558;7.258;2022-07-01T10:13:15;3.42;;;1.32;;
23136;SDS011;11737;50.558;7.258;2022-07-01T10:15:46;4.55;;;1.30;;
23136;SDS011;11737;50.558;7.258;2022-07-01T10:18:24;2.72;;;1.10;;
23136;SDS011;11737;50.558;7.258;2022-07-01T10:20:54;12.20;;;1.50;;
23136;SDS011;11737;50.558;7.258;2022-07-01T10:23:25;5.62;;;1.00;;
23136;SDS011;11737;50.558;7.258;2022-07-01T10:26:03;6.33;;;1.22;;
23136;SDS011;11737;50.558;7.258;2022-07-01T10:31:10;3.40;;;1.47;;
23136;SDS011;11737;50.558;7.258;2022-07-01T10:41:37;2.27;;;1.22;;
23136;SDS011;11737;50.558;7.258;2022-07-01T10:44:23;4.15;;;1.12;;
23136;SDS011;11737;50.558;7.258;2022-07-01T10:46:53;4.58;;;1.05;;
23136;SDS011;11737;50.558;7.258;2022-07-01T10:52:09;3.30;;;0.95;;
23136;SDS011;11737;50.558;7.258;2022-07-01T10:59:56;3.17;;;1.25;;
23136;SDS011;11737;50.558;7.258;2022-07-01T11:02:21;1.25;;;1.00;;
23136;SDS011;11737;50.558;7.258;2022-07-01T11:04:52;1.67;;;0.90;;
23136;SDS011;11737;50.558;7.258;2022-07-01T11:07:29;2.80;;;1.00;;
23136;SDS011;11737;50.558;7.258;2022-07-01T11:09:53;1.45;;;0.82;;
23136;SDS011;11737;50.558;7.258;2022-07-01T11:12:21;6.72;;;1.30;;
23136;SDS011;11737;50.558;7.258;2022-07-01T11:14:50;6.72;;;1.02;;
23136;SDS011;11737;50.558;7.258;2022-07-01T11:17:19;5.42;;;1.22;;
23136;SDS011;11737;50.558;7.258;2022-07-01T11:19:48;3.00;;;0.90;;
23136;SDS011;11737;50.558;7.258;2022-07-01T11:22:19;3.87;;;0.93;;
23136;SDS011;11737;50.558;7.258;2022-07-01T11:24:51;2.72;;;1.05;;
23136;SDS011;11737;50.558;7.258;2022-07-01T11:27:20;6.25;;;1.10;;
23136;SDS011;11737;50.558;7.258;2022-07-01T11:29:56;5.47;;;1.12;;
23136;SDS011;11737;50.558;7.258;2022-07-01T11:32:29;3.12;;;1.20;;
23136;SDS011;11737;50.558;7.258;2022-07-01T11:34:57;1.30;;;0.90;;
23136;SDS011;11737;50.558;7.258;2022-07-01T11:37:28;2.22;;;1.07;;
23136;SDS011;11737;50.558;7.258;2022-07-01T11:40:15;3.55;;;1.02;;
23136;SDS011;11737;50.558;7.258;2022-07-01T11:42:45;5.62;;;1.20;;
23136;SDS011;11737;50.558;7.258;2022-07-01T11:45:26;3.42;;;0.93;;
23136;SDS011;11737;50.558;7.258;2022-07-01T11:47:53;2.20;;;1.02;;
23136;SDS011;11737;50.558;7.258;2022-07-01T11:50:21;7.40;;;0.98;;
23136;SDS011;11737;50.558;7.258;2022-07-01T11:52:48;3.00;;;0.90;;
23136;SDS011;11737;50.558;7.258;2022-07-01T11:55:22;1.67;;;0.68;;
23136;SDS011;11737;50.558;7.258;2022-07-01T11:57:49;1.37;;;0.80;;
23136;SDS011;11737;50.558;7.258;2022-07-01T12:00:18;2.12;;;0.90;;
23136;SDS011;11737;50.558;7.258;2022-07-01T12:02:49;4.58;;;1.17;;
23136;SDS011;11737;50.558;7.258;2022-07-01T12:05:18;1.17;;;0.80;;
23136;SDS011;11737;50.558;7.258;2022-07-01T12:07:47;2.87;;;1.10;;
23136;SDS011;11737;50.558;7.258;2022-07-01T12:10:15;1.70;;;0.82;;
23136;SDS011;11737;50.558;7.258;2022-07-01T12:12:43;2.35;;;1.05;;
23136;SDS011;11737;50.558;7.258;2022-07-01T12:15:13;5.58;;;1.20;;
23136;SDS011;11737;50.558;7.258;2022-07-01T12:17:40;4.60;;;1.30;;
23136;SDS011;11737;50.558;7.258;2022-07-01T12:20:08;2.72;;;1.02;;
23136;SDS011;11737;50.558;7.258;2022-07-01T12:22:36;3.65;;;1.17;;
23136;SDS011;11737;50.558;7.258;2022-07-01T12:25:04;2.98;;;1.12;;
23136;SDS011;11737;50.558;7.258;2022-07-01T12:27:34;4.22;;;0.90;;
23136;SDS011;11737;50.558;7.258;2022-07-01T12:30:04;1.80;;;0.95;;
23136;SDS011;11737;50.558;7.258;2022-07-01T12:32:34;1.50;;;1.05;;
23136;SDS011;11737;50.558;7.258;2022-07-01T12:35:06;4.65;;;1.50;;
23136;SDS011;11737;50.558;7.258;2022-07-01T12:37:36;4.25;;;1.45;;
23136;SDS011;11737;50.558;7.258;2022-07-01T12:42:53;4.00;;;1.10;;
23136;SDS011;11737;50.558;7.258;2022-07-01T12:45:23;5.55;;;1.00;;
23136;SDS011;11737;50.558;7.258;2022-07-01T12:47:53;1.92;;;1.22;;
23136;SDS011;11737;50.558;7.258;2022-07-01T12:50:26;5.50;;;1.37;;
23136;SDS011;11737;50.558;7.258;2022-07-01T12:53:01;3.60;;;1.15;;
23136;SDS011;11737;50.558;7.258;2022-07-01T12:55:31;6.53;;;1.20;;
23136;SDS011;11737;50.558;7.258;2022-07-01T12:58:00;6.97;;;1.45;;
23136;SDS011;11737;50.558;7.258;2022-07-01T13:00:29;4.85;;;1.30;;
23136;SDS011;11737;50.558;7.258;2022-07-01T13:02:59;4.97;;;1.10;;
23136;SDS011;11737;50.558;7.258;2022-07-01T13:05:28;3.58;;;1.37;;
23136;SDS011;11737;50.558;7.258;2022-07-01T13:07:57;2.75;;;1.10;;
23136;SDS011;11737;50.558;7.258;2022-07-01T13:10:25;2.90;;;1.00;;
23136;SDS011;11737;50.558;7.258;2022-07-01T13:12:53;4.67;;;1.22;;
23136;SDS011;11737;50.558;7.258;2022-07-01T13:15:21;4.35;;;1.22;;
23136;SDS011;11737;50.558;7.258;2022-07-01T13:17:49;5.15;;;1.10;;
23136;SDS011;11737;50.558;7.258;2022-07-01T13:20:17;7.03;;;1.72;;
23136;SDS011;11737;50.558;7.258;2022-07-01T13:22:45;3.85;;;0.93;;
23136;SDS011;11737;50.558;7.258;2022-07-01T13:25:13;5.20;;;1.20;;
23136;SDS011;11737;50.558;7.258;2022-07-01T13:27:41;4.28;;;1.15;;
23136;SDS011;11737;50.558;7.258;2022-07-01T13:30:10;8.58;;;1.32;;
23136;SDS011;11737;50.558;7.258;2022-07-01T13:32:40;2.00;;;0.93;;
23136;SDS011;11737;50.558;7.258;2022-07-01T13:35:08;1.70;;;0.88;;
23136;SDS011;11737;50.558;7.258;2022-07-01T13:37:37;5.85;;;1.10;;
23136;SDS011;11737;50.558;7.258;2022-07-01T13:40:05;3.40;;;0.95;;
23136;SDS011;11737;50.558;7.258;2022-07-01T13:42:34;13.43;;;1.30;;
23136;SDS011;11737;50.558;7.258;2022-07-01T13:45:02;4.28;;;1.07;;
23136;SDS011;11737;50.558;7.258;2022-07-01T13:47:30;4.08;;;1.05;;
23136;SDS011;11737;50.558;7.258;2022-07-01T13:49:58;3.60;;;0.88;;
23136;SDS011;11737;50.558;7.258;2022-07-01T13:52:26;2.33;;;0.75;;
23136;SDS011;11737;50.558;7.258;2022-07-01T13:54:56;9.28;;;1.50;;
23136;SDS011;11737;50.558;7.258;2022-07-01T13:57:25;2.60;;;0.57;;
23136;SDS011;11737;50.558;7.258;2022-07-01T13:59:53;8.23;;;0.98;;
23136;SDS011;11737;50.558;7.258;2022-07-01T14:02:22;3.50;;;0.78;;
23136;SDS011;11737;50.558;7.258;2022-07-01T14:04:50;1.98;;;1.00;;
23136;SDS011;11737;50.558;7.258;2022-07-01T14:07:18;4.30;;;1.00;;
23136;SDS011;11737;50.558;7.258;2022-07-01T14:09:45;2.98;;;0.90;;
23136;SDS011;11737;50.558;7.258;2022-07-01T14:12:13;1.40;;;0.78;;
23136;SDS011;11737;50.558;7.258;2022-07-01T14:14:42;1.87;;;0.82;;
23136;SDS011;11737;50.558;7.258;2022-07-01T14:17:09;1.80;;;0.90;;
23136;SDS011;11737;50.558;7.258;2022-07-01T14:19:37;1.85;;;0.82;;
23136;SDS011;11737;50.558;7.258;2022-07-01T14:22:05;10.60;;;1.42;;
23136;SDS011;11737;50.558;7.258;2022-07-01T14:24:33;0.85;;;0.80;;
23136;SDS011;11737;50.558;7.258;2022-07-01T14:27:00;8.20;;;1.57;;
23136;SDS011;11737;50.558;7.258;2022-07-01T14:29:28;2.95;;;1.07;;
23136;SDS011;11737;50.558;7.258;2022-07-01T14:31:55;3.40;;;0.88;;
23136;SDS011;11737;50.558;7.258;2022-07-01T14:34:25;6.37;;;1.10;;
23136;SDS011;11737;50.558;7.258;2022-07-01T14:36:53;6.00;;;1.75;;
23136;SDS011;11737;50.558;7.258;2022-07-01T14:39:22;4.78;;;1.70;;
23136;SDS011;11737;50.558;7.258;2022-07-01T14:41:51;1.75;;;1.10;;
23136;SDS011;11737;50.558;7.258;2022-07-01T14:44:19;5.08;;;1.12;;
23136;SDS011;11737;50.558;7.258;2022-07-01T14:46:46;4.90;;;0.95;;
23136;SDS011;11737;50.558;7.258;2022-07-01T14:49:14;3.90;;;0.90;;
23136;SDS011;11737;50.558;7.258;2022-07-01T14:51:43;3.77;;;0.80;;
23136;SDS011;11737;50.558;7.258;2022-07-01T14:54:11;2.83;;;0.82;;
23136;SDS011;11737;50.558;7.258;2022-07-01T14:56:38;3.17;;;0.90;;
23136;SDS011;11737;50.558;7.258;2022-07-01T14:59:06;11.00;;;1.70;;
23136;SDS011;11737;50.558;7.258;2022-07-01T15:01:34;3.67;;;1.30;;
23136;SDS011;11737;50.558;7.258;2022-07-01T15:04:01;3.15;;;1.07;;
23136;SDS011;11737;50.558;7.258;2022-07-01T15:06:29;4.10;;;0.88;;
23136;SDS011;11737;50.558;7.258;2022-07-01T15:08:56;2.98;;;0.90;;
23136;SDS011;11737;50.558;7.258;2022-07-01T15:11:24;2.37;;;0.93;;
23136;SDS011;11737;50.558;7.258;2022-07-01T15:13:51;0.93;;;0.70;;
23136;SDS011;11737;50.558;7.258;2022-07-01T15:16:20;1.60;;;1.10;;
23136;SDS011;11737;50.558;7.258;2022-07-01T15:18:49;3.75;;;1.10;;